As Suwayq — V7XU8 — position and weather

sailwx.info

Track history (hours):
 
Tides and Currents Weather Stations Pressure Air Temp Water Temp Dewpoint Dewpoint Depression Visibility Wind Speed Wind Dir Waves Ship Positions

As Suwayq

Last reported at 2015-Feb-20 20:27 UTC. Time now 2015-Feb-27 16:57 UTC.
Position N 01°59' E 102°12'.

Length 333 m; draft 11.5 m.

Type: Tanker. MMSI: 538004576.

Date/timePositionNaut miles runAvg speedWind from/ knotsBaromVisibWave heightAir tempDewpointWater temp
2015-Feb-20 20:27N 01°59' E 102°12'1414.4
2015-Feb-20 19:30N 01°52' E 102°23'1414.3
2015-Feb-20 18:33N 01°47' E 102°36'1313.5
2015-Feb-20 17:33N 01°41' E 102°48'6011.4
2015-Feb-20 12:16N 01°11' E 103°40'6 7.8
2015-Feb-20 11:30N 01°09' E 103°46'8 8.6
2015-Feb-20 10:33N 01°13' E 103°53'4 3.3
2015-Feb-20 09:20N 01°15' E 103°56'0 0.1
2015-Feb-20 08:08N 01°15' E 103°56'0 0.1
2015-Feb-20 07:26N 01°15' E 103°56'0 0.1
2015-Feb-20 06:14N 01°15' E 103°56'0 0.2
2015-Feb-20 05:05N 01°15' E 103°56'0 0.0
2015-Feb-20 04:20N 01°15' E 103°56'0 0.0
2015-Feb-20 03:14N 01°15' E 103°56'0 0.0
2015-Feb-20 02:32N 01°15' E 103°56'0 0.0
2015-Feb-20 01:14N 01°15' E 103°56'0 0.0
2015-Feb-20 00:11N 01°15' E 103°56'0 0.0
2015-Feb-19 23:26N 01°15' E 103°56'0 0.1
2015-Feb-19 22:17N 01°15' E 103°56'0 0.0
2015-Feb-19 21:31N 01°15' E 103°56'0 0.0
2015-Feb-19 20:18N 01°15' E 103°56'0 0.0
2015-Feb-19 19:30N 01°15' E 103°56'0 0.0
2015-Feb-19 18:27N 01°15' E 103°56'0 0.0
2015-Feb-19 17:30N 01°15' E 103°56'0 0.0
2015-Feb-19 16:30N 01°15' E 103°56'0 0.0
2015-Feb-19 15:24N 01°15' E 103°56'0 0.1
2015-Feb-19 14:18N 01°15' E 103°56'0 0.1
2015-Feb-19 13:12N 01°15' E 103°56'0 0.0
2015-Feb-19 12:18N 01°15' E 103°56'0 0.3
2015-Feb-19 11:21N 01°15' E 103°56'0 0.1
2015-Feb-19 10:18N 01°15' E 103°56'0 0.0
2015-Feb-19 09:30N 01°15' E 103°56'0 0.0
2015-Feb-19 07:18N 01°15' E 103°56'0 0.1
2015-Feb-19 06:06N 01°15' E 103°56'0 0.2
2015-Feb-19 05:24N 01°15' E 103°56'0 0.1
2015-Feb-19 04:28N 01°15' E 103°56'0 0.0
2015-Feb-19 02:19N 01°15' E 103°56'0 0.1
2015-Feb-19 01:16N 01°15' E 103°56'0 0.0
2015-Feb-19 00:07N 01°15' E 103°56'0 0.1
2015-Feb-18 23:16N 01°15' E 103°56'0 0.1
2015-Feb-18 22:07N 01°15' E 103°56'0 0.3
2015-Feb-18 21:25N 01°15' E 103°56'0 0.1
2015-Feb-18 20:31N 01°15' E 103°56'0 0.1
2015-Feb-18 19:33N 01°15' E 103°56'0 0.4
2015-Feb-18 18:32N 01°16' E 103°56'3 2.8
2015-Feb-18 17:33N 01°16' E 103°59'6 6.2
2015-Feb-18 16:33N 01°16' E 104°05'7 7.2
2015-Feb-18 15:33N 01°17' E 104°12'  
2015-Feb-12 05:32N 29°33' E 122°33'1211.8
2015-Feb-12 04:33N 29°42' E 122°25'1211.6
2015-Feb-12 03:33N 29°49' E 122°14'1110.8
2015-Feb-12 02:34N 29°55' E 122°04'1211.5
2015-Feb-12 01:33N 29°57' E 121°51'1 1.1
2015-Feb-12 00:11N 29°57' E 121°49'0 0.0
2015-Feb-11 23:29N 29°57' E 121°49'0 0.0
2015-Feb-11 22:29N 29°57' E 121°49'0 0.0
2015-Feb-11 21:26N 29°57' E 121°49'0 0.0
2015-Feb-11 20:11N 29°57' E 121°49'0 0.0
2015-Feb-11 19:29N 29°57' E 121°49'0 0.0
2015-Feb-11 18:23N 29°57' E 121°49'0 0.0
2015-Feb-11 17:29N 29°57' E 121°49'0 0.0
2015-Feb-11 16:29N 29°57' E 121°49'0 0.0
2015-Feb-11 15:29N 29°57' E 121°49'0 0.0
2015-Feb-11 14:17N 29°57' E 121°49'0 0.0
2015-Feb-11 13:29N 29°57' E 121°49'0 0.0
2015-Feb-11 12:23N 29°57' E 121°49'0 0.0
2015-Feb-11 11:29N 29°57' E 121°49'0 0.0
2015-Feb-11 10:17N 29°57' E 121°49'0 0.0
2015-Feb-11 09:23N 29°57' E 121°49'0 0.0
2015-Feb-11 08:28N 29°57' E 121°49'0 0.0
2015-Feb-11 07:29N 29°57' E 121°49'0 0.0
2015-Feb-11 06:28N 29°57' E 121°49'0 0.0
2015-Feb-11 05:16N 29°57' E 121°49'0 0.0
2015-Feb-11 04:19N 29°57' E 121°49'0 0.0
2015-Feb-11 03:16N 29°57' E 121°49'0 0.0
2015-Feb-11 02:25N 29°57' E 121°49'0 0.0
2015-Feb-11 01:28N 29°57' E 121°49'0 0.0
2015-Feb-11 00:28N 29°57' E 121°49'0 0.0
2015-Feb-10 23:28N 29°57' E 121°49'0 0.0
2015-Feb-10 22:28N 29°57' E 121°49'0 0.0
2015-Feb-10 21:28N 29°57' E 121°49'0 0.0
2015-Feb-10 20:27N 29°57' E 121°49'  
Track history (hours):
 
Tides and Currents Weather Stations Pressure Air Temp Water Temp Dewpoint Dewpoint Depression Visibility Wind Speed Wind Dir Waves Ship Positions

As Suwayq

Last reported at 2015-Feb-20 20:27 UTC. Time now 2015-Feb-27 16:57 UTC.
Position N 01°59' E 102°12'.

Length 333 m; draft 11.5 m.

Type: Tanker. MMSI: 538004576.

Date/timePositionNaut miles runAvg speedWind from/ knotsBaromVisibWave heightAir tempDewpointWater temp
2015-Feb-20 20:27N 01°59' E 102°12'1414.4
2015-Feb-20 19:30N 01°52' E 102°23'1414.3
2015-Feb-20 18:33N 01°47' E 102°36'1313.5
2015-Feb-20 17:33N 01°41' E 102°48'6011.4
2015-Feb-20 12:16N 01°11' E 103°40'6 7.8
2015-Feb-20 11:30N 01°09' E 103°46'8 8.6
2015-Feb-20 10:33N 01°13' E 103°53'4 3.3
2015-Feb-20 09:20N 01°15' E 103°56'0 0.1
2015-Feb-20 08:08N 01°15' E 103°56'0 0.1
2015-Feb-20 07:26N 01°15' E 103°56'0 0.1
2015-Feb-20 06:14N 01°15' E 103°56'0 0.2
2015-Feb-20 05:05N 01°15' E 103°56'0 0.0
2015-Feb-20 04:20N 01°15' E 103°56'0 0.0
2015-Feb-20 03:14N 01°15' E 103°56'0 0.0
2015-Feb-20 02:32N 01°15' E 103°56'0 0.0
2015-Feb-20 01:14N 01°15' E 103°56'0 0.0
2015-Feb-20 00:11N 01°15' E 103°56'0 0.0
2015-Feb-19 23:26N 01°15' E 103°56'0 0.1
2015-Feb-19 22:17N 01°15' E 103°56'0 0.0
2015-Feb-19 21:31N 01°15' E 103°56'0 0.0
2015-Feb-19 20:18N 01°15' E 103°56'0 0.0
2015-Feb-19 19:30N 01°15' E 103°56'0 0.0
2015-Feb-19 18:27N 01°15' E 103°56'0 0.0
2015-Feb-19 17:30N 01°15' E 103°56'0 0.0
2015-Feb-19 16:30N 01°15' E 103°56'0 0.0
2015-Feb-19 15:24N 01°15' E 103°56'0 0.1
2015-Feb-19 14:18N 01°15' E 103°56'0 0.1
2015-Feb-19 13:12N 01°15' E 103°56'0 0.0
2015-Feb-19 12:18N 01°15' E 103°56'0 0.3
2015-Feb-19 11:21N 01°15' E 103°56'0 0.1
2015-Feb-19 10:18N 01°15' E 103°56'0 0.0
2015-Feb-19 09:30N 01°15' E 103°56'0 0.0
2015-Feb-19 07:18N 01°15' E 103°56'0 0.1
2015-Feb-19 06:06N 01°15' E 103°56'0 0.2
2015-Feb-19 05:24N 01°15' E 103°56'0 0.1
2015-Feb-19 04:28N 01°15' E 103°56'0 0.0
2015-Feb-19 02:19N 01°15' E 103°56'0 0.1
2015-Feb-19 01:16N 01°15' E 103°56'0 0.0
2015-Feb-19 00:07N 01°15' E 103°56'0 0.1
2015-Feb-18 23:16N 01°15' E 103°56'0 0.1
2015-Feb-18 22:07N 01°15' E 103°56'0 0.3
2015-Feb-18 21:25N 01°15' E 103°56'0 0.1
2015-Feb-18 20:31N 01°15' E 103°56'0 0.1
2015-Feb-18 19:33N 01°15' E 103°56'0 0.4
2015-Feb-18 18:32N 01°16' E 103°56'3 2.8
2015-Feb-18 17:33N 01°16' E 103°59'6 6.2
2015-Feb-18 16:33N 01°16' E 104°05'7 7.2
2015-Feb-18 15:33N 01°17' E 104°12'  
2015-Feb-12 05:32N 29°33' E 122°33'1211.8
2015-Feb-12 04:33N 29°42' E 122°25'1211.6
2015-Feb-12 03:33N 29°49' E 122°14'1110.8
2015-Feb-12 02:34N 29°55' E 122°04'1211.5
2015-Feb-12 01:33N 29°57' E 121°51'1 1.1
2015-Feb-12 00:11N 29°57' E 121°49'0 0.0
2015-Feb-11 23:29N 29°57' E 121°49'0 0.0
2015-Feb-11 22:29N 29°57' E 121°49'0 0.0
2015-Feb-11 21:26N 29°57' E 121°49'0 0.0
2015-Feb-11 20:11N 29°57' E 121°49'0 0.0
2015-Feb-11 19:29N 29°57' E 121°49'0 0.0
2015-Feb-11 18:23N 29°57' E 121°49'0 0.0
2015-Feb-11 17:29N 29°57' E 121°49'0 0.0
2015-Feb-11 16:29N 29°57' E 121°49'0 0.0
2015-Feb-11 15:29N 29°57' E 121°49'0 0.0
2015-Feb-11 14:17N 29°57' E 121°49'0 0.0
2015-Feb-11 13:29N 29°57' E 121°49'0 0.0
2015-Feb-11 12:23N 29°57' E 121°49'0 0.0
2015-Feb-11 11:29N 29°57' E 121°49'0 0.0
2015-Feb-11 10:17N 29°57' E 121°49'0 0.0
2015-Feb-11 09:23N 29°57' E 121°49'0 0.0
2015-Feb-11 08:28N 29°57' E 121°49'0 0.0
2015-Feb-11 07:29N 29°57' E 121°49'0 0.0
2015-Feb-11 06:28N 29°57' E 121°49'0 0.0
2015-Feb-11 05:16N 29°57' E 121°49'0 0.0
2015-Feb-11 04:19N 29°57' E 121°49'0 0.0
2015-Feb-11 03:16N 29°57' E 121°49'0 0.0
2015-Feb-11 02:25N 29°57' E 121°49'0 0.0
2015-Feb-11 01:28N 29°57' E 121°49'0 0.0
2015-Feb-11 00:28N 29°57' E 121°49'0 0.0
2015-Feb-10 23:28N 29°57' E 121°49'0 0.0
2015-Feb-10 22:28N 29°57' E 121°49'0 0.0
2015-Feb-10 21:28N 29°57' E 121°49'0 0.0
2015-Feb-10 20:27N 29°57' E 121°49'  

Dump ship's entire track history